sensor_id;sensor_type;location;lat;lon;timestamp;temperature;humidity
28947;DHT22;16052;50.930;5.326;2023-03-23T00:01:56;13.40;99.90
28947;DHT22;16052;50.930;5.326;2023-03-23T00:04:22;13.50;99.90
28947;DHT22;16052;50.930;5.326;2023-03-23T00:06:50;13.40;99.90
28947;DHT22;16052;50.930;5.326;2023-03-23T00:09:15;13.30;99.90
28947;DHT22;16052;50.930;5.326;2023-03-23T00:11:42;13.40;99.90
28947;DHT22;16052;50.930;5.326;2023-03-23T00:14:09;13.30;99.90
28947;DHT22;16052;50.930;5.326;2023-03-23T00:16:39;13.40;99.90
28947;DHT22;16052;50.930;5.326;2023-03-23T00:19:11;13.40;99.90
28947;DHT22;16052;50.930;5.326;2023-03-23T00:21:41;13.40;99.90
28947;DHT22;16052;50.930;5.326;2023-03-23T00:24:10;13.40;99.90
28947;DHT22;16052;50.930;5.326;2023-03-23T00:26:39;13.40;99.90
28947;DHT22;16052;50.930;5.326;2023-03-23T00:29:28;13.40;99.90
28947;DHT22;16052;50.930;5.326;2023-03-23T00:31:55;13.40;99.90
28947;DHT22;16052;50.930;5.326;2023-03-23T00:34:23;13.40;99.90
28947;DHT22;16052;50.930;5.326;2023-03-23T00:36:52;13.30;99.90
28947;DHT22;16052;50.930;5.326;2023-03-23T00:39:21;13.40;99.90
28947;DHT22;16052;50.930;5.326;2023-03-23T00:41:50;13.30;99.90
28947;DHT22;16052;50.930;5.326;2023-03-23T00:44:15;13.40;99.90
28947;DHT22;16052;50.930;5.326;2023-03-23T00:46:47;13.40;99.90
28947;DHT22;16052;50.930;5.326;2023-03-23T00:49:18;13.40;99.90
28947;DHT22;16052;50.930;5.326;2023-03-23T00:51:45;13.40;99.90
28947;DHT22;16052;50.930;5.326;2023-03-23T00:54:11;13.40;99.90
28947;DHT22;16052;50.930;5.326;2023-03-23T00:56:37;13.40;99.90
28947;DHT22;16052;50.930;5.326;2023-03-23T00:59:05;13.40;99.90
28947;DHT22;16052;50.930;5.326;2023-03-23T01:01:31;13.40;99.90
28947;DHT22;16052;50.930;5.326;2023-03-23T01:03:58;13.40;99.90
28947;DHT22;16052;50.930;5.326;2023-03-23T01:06:27;13.30;99.90
28947;DHT22;16052;50.930;5.326;2023-03-23T01:08:53;13.30;99.90
28947;DHT22;16052;50.930;5.326;2023-03-23T01:11:19;13.40;99.90
28947;DHT22;16052;50.930;5.326;2023-03-23T01:13:46;13.30;99.90
28947;DHT22;16052;50.930;5.326;2023-03-23T01:16:12;13.30;99.90
28947;DHT22;16052;50.930;5.326;2023-03-23T01:18:39;13.30;99.90
28947;DHT22;16052;50.930;5.326;2023-03-23T01:21:10;13.40;99.90
28947;DHT22;16052;50.930;5.326;2023-03-23T01:23:39;13.50;99.90
28947;DHT22;16052;50.930;5.326;2023-03-23T01:26:26;13.40;99.90
28947;DHT22;16052;50.930;5.326;2023-03-23T01:28:53;13.50;99.90
28947;DHT22;16052;50.930;5.326;2023-03-23T01:31:22;13.50;99.90
28947;DHT22;16052;50.930;5.326;2023-03-23T01:33:48;13.30;99.90
28947;DHT22;16052;50.930;5.326;2023-03-23T01:36:21;13.30;99.90
28947;DHT22;16052;50.930;5.326;2023-03-23T01:38:48;13.30;99.90
28947;DHT22;16052;50.930;5.326;2023-03-23T01:41:16;13.30;99.90
28947;DHT22;16052;50.930;5.326;2023-03-23T01:44:04;13.30;99.90
28947;DHT22;16052;50.930;5.326;2023-03-23T01:46:35;13.20;99.90
28947;DHT22;16052;50.930;5.326;2023-03-23T01:49:15;13.20;99.90
28947;DHT22;16052;50.930;5.326;2023-03-23T01:51:54;13.20;99.90
28947;DHT22;16052;50.930;5.326;2023-03-23T01:54:22;13.10;99.90
28947;DHT22;16052;50.930;5.326;2023-03-23T01:56:57;13.10;99.90
28947;DHT22;16052;50.930;5.326;2023-03-23T01:59:25;13.20;99.90
28947;DHT22;16052;50.930;5.326;2023-03-23T02:01:53;13.10;99.90
28947;DHT22;16052;50.930;5.326;2023-03-23T02:04:20;13.10;99.90
28947;DHT22;16052;50.930;5.326;2023-03-23T02:06:47;13.00;99.90
28947;DHT22;16052;50.930;5.326;2023-03-23T02:09:13;13.10;99.90
28947;DHT22;16052;50.930;5.326;2023-03-23T02:11:39;13.10;99.90
28947;DHT22;16052;50.930;5.326;2023-03-23T02:14:05;13.00;99.90
28947;DHT22;16052;50.930;5.326;2023-03-23T02:16:43;13.10;99.90
28947;DHT22;16052;50.930;5.326;2023-03-23T02:27:11;13.20;99.90
28947;DHT22;16052;50.930;5.326;2023-03-23T02:32:40;13.20;99.90
28947;DHT22;16052;50.930;5.326;2023-03-23T02:35:16;13.20;99.90
28947;DHT22;16052;50.930;5.326;2023-03-23T02:38:01;13.20;99.90
28947;DHT22;16052;50.930;5.326;2023-03-23T02:40:33;13.20;99.90
28947;DHT22;16052;50.930;5.326;2023-03-23T02:43:02;13.10;99.90
28947;DHT22;16052;50.930;5.326;2023-03-23T02:45:30;13.10;99.90
28947;DHT22;16052;50.930;5.326;2023-03-23T02:47:56;13.20;99.90
28947;DHT22;16052;50.930;5.326;2023-03-23T02:50:24;13.10;99.90
28947;DHT22;16052;50.930;5.326;2023-03-23T02:52:53;13.10;99.90
28947;DHT22;16052;50.930;5.326;2023-03-23T02:55:22;13.10;99.90
28947;DHT22;16052;50.930;5.326;2023-03-23T02:57:52;13.10;99.90
28947;DHT22;16052;50.930;5.326;2023-03-23T03:00:19;13.10;99.90
28947;DHT22;16052;50.930;5.326;2023-03-23T03:02:56;13.20;99.90
28947;DHT22;16052;50.930;5.326;2023-03-23T03:05:36;13.20;99.90
28947;DHT22;16052;50.930;5.326;2023-03-23T03:13:20;13.20;99.90
28947;DHT22;16052;50.930;5.326;2023-03-23T03:18:39;13.30;99.90
28947;DHT22;16052;50.930;5.326;2023-03-23T03:21:11;13.30;99.90
28947;DHT22;16052;50.930;5.326;2023-03-23T03:23:39;13.40;99.90
28947;DHT22;16052;50.930;5.326;2023-03-23T03:26:07;13.40;99.90
28947;DHT22;16052;50.930;5.326;2023-03-23T03:28:35;13.30;99.90
28947;DHT22;16052;50.930;5.326;2023-03-23T03:31:03;13.40;99.90
28947;DHT22;16052;50.930;5.326;2023-03-23T03:33:30;13.40;99.90
28947;DHT22;16052;50.930;5.326;2023-03-23T03:36:00;13.40;99.90
28947;DHT22;16052;50.930;5.326;2023-03-23T03:38:26;13.40;99.90
28947;DHT22;16052;50.930;5.326;2023-03-23T03:40:52;13.40;99.90
28947;DHT22;16052;50.930;5.326;2023-03-23T03:43:18;13.50;99.90
28947;DHT22;16052;50.930;5.326;2023-03-23T03:45:44;13.40;99.90
28947;DHT22;16052;50.930;5.326;2023-03-23T03:48:10;13.40;99.90
28947;DHT22;16052;50.930;5.326;2023-03-23T03:50:36;13.50;99.90
28947;DHT22;16052;50.930;5.326;2023-03-23T03:53:02;13.40;99.90
28947;DHT22;16052;50.930;5.326;2023-03-23T03:55:28;13.40;99.90
28947;DHT22;16052;50.930;5.326;2023-03-23T03:57:55;13.40;99.90
28947;DHT22;16052;50.930;5.326;2023-03-23T04:00:20;13.40;99.90
28947;DHT22;16052;50.930;5.326;2023-03-23T04:02:49;13.40;99.90
28947;DHT22;16052;50.930;5.326;2023-03-23T04:05:21;13.40;99.90
28947;DHT22;16052;50.930;5.326;2023-03-23T04:07:50;13.40;99.90
28947;DHT22;16052;50.930;5.326;2023-03-23T04:10:20;13.30;99.90
28947;DHT22;16052;50.930;5.326;2023-03-23T04:12:50;13.30;99.90
28947;DHT22;16052;50.930;5.326;2023-03-23T04:15:16;13.40;99.90
28947;DHT22;16052;50.930;5.326;2023-03-23T04:17:41;13.40;99.90
28947;DHT22;16052;50.930;5.326;2023-03-23T04:20:08;13.40;99.90
28947;DHT22;16052;50.930;5.326;2023-03-23T04:22:39;13.40;99.90
28947;DHT22;16052;50.930;5.326;2023-03-23T04:25:09;13.30;99.90
28947;DHT22;16052;50.930;5.326;2023-03-23T04:27:37;13.30;99.90
28947;DHT22;16052;50.930;5.326;2023-03-23T04:30:03;13.30;99.90
28947;DHT22;16052;50.930;5.326;2023-03-23T04:32:30;13.40;99.90
28947;DHT22;16052;50.930;5.326;2023-03-23T04:34:56;13.30;99.90
28947;DHT22;16052;50.930;5.326;2023-03-23T04:37:26;13.30;99.90
28947;DHT22;16052;50.930;5.326;2023-03-23T04:39:57;13.20;99.90
28947;DHT22;16052;50.930;5.326;2023-03-23T04:42:30;13.20;99.90
28947;DHT22;16052;50.930;5.326;2023-03-23T04:44:59;13.30;99.90
28947;DHT22;16052;50.930;5.326;2023-03-23T04:47:26;13.20;99.90
28947;DHT22;16052;50.930;5.326;2023-03-23T04:49:58;13.30;99.90
28947;DHT22;16052;50.930;5.326;2023-03-23T04:52:27;13.30;99.90
28947;DHT22;16052;50.930;5.326;2023-03-23T04:54:54;13.20;99.90
28947;DHT22;16052;50.930;5.326;2023-03-23T04:57:22;13.30;99.90
28947;DHT22;16052;50.930;5.326;2023-03-23T04:59:47;13.30;99.90
28947;DHT22;16052;50.930;5.326;2023-03-23T05:02:15;13.20;99.90
28947;DHT22;16052;50.930;5.326;2023-03-23T05:04:42;13.20;99.90
28947;DHT22;16052;50.930;5.326;2023-03-23T05:07:08;13.20;99.90
28947;DHT22;16052;50.930;5.326;2023-03-23T05:09:35;13.20;99.90
28947;DHT22;16052;50.930;5.326;2023-03-23T05:12:05;13.20;99.90
28947;DHT22;16052;50.930;5.326;2023-03-23T05:14:31;13.20;99.90
28947;DHT22;16052;50.930;5.326;2023-03-23T05:16:57;13.20;99.90
28947;DHT22;16052;50.930;5.326;2023-03-23T05:19:22;13.20;99.90
28947;DHT22;16052;50.930;5.326;2023-03-23T05:21:48;13.20;99.90
28947;DHT22;16052;50.930;5.326;2023-03-23T05:24:14;13.10;99.90
28947;DHT22;16052;50.930;5.326;2023-03-23T05:26:39;13.10;99.90
28947;DHT22;16052;50.930;5.326;2023-03-23T05:29:06;13.00;99.90
28947;DHT22;16052;50.930;5.326;2023-03-23T05:31:32;13.10;99.90
28947;DHT22;16052;50.930;5.326;2023-03-23T05:33:57;13.10;99.90
28947;DHT22;16052;50.930;5.326;2023-03-23T05:36:23;13.10;99.90
28947;DHT22;16052;50.930;5.326;2023-03-23T05:38:52;13.00;99.90
28947;DHT22;16052;50.930;5.326;2023-03-23T05:41:19;13.00;99.90
28947;DHT22;16052;50.930;5.326;2023-03-23T05:43:46;13.00;99.90
28947;DHT22;16052;50.930;5.326;2023-03-23T05:46:12;13.00;99.90
28947;DHT22;16052;50.930;5.326;2023-03-23T05:48:37;13.00;99.90
28947;DHT22;16052;50.930;5.326;2023-03-23T05:51:03;13.00;99.90
28947;DHT22;16052;50.930;5.326;2023-03-23T05:53:29;13.00;99.90
28947;DHT22;16052;50.930;5.326;2023-03-23T05:56:02;13.00;99.90
28947;DHT22;16052;50.930;5.326;2023-03-23T05:58:29;13.00;99.90
28947;DHT22;16052;50.930;5.326;2023-03-23T06:00:55;13.00;99.90
28947;DHT22;16052;50.930;5.326;2023-03-23T06:03:21;12.90;99.90
28947;DHT22;16052;50.930;5.326;2023-03-23T06:05:48;12.80;99.90
28947;DHT22;16052;50.930;5.326;2023-03-23T06:08:13;12.90;99.90
28947;DHT22;16052;50.930;5.326;2023-03-23T06:10:39;12.90;99.90
28947;DHT22;16052;50.930;5.326;2023-03-23T06:13:05;12.90;99.90
28947;DHT22;16052;50.930;5.326;2023-03-23T06:15:31;12.90;99.90
28947;DHT22;16052;50.930;5.326;2023-03-23T06:18:01;13.00;99.90
28947;DHT22;16052;50.930;5.326;2023-03-23T06:20:28;13.00;99.90
28947;DHT22;16052;50.930;5.326;2023-03-23T06:22:54;12.90;99.90
28947;DHT22;16052;50.930;5.326;2023-03-23T06:25:21;13.00;99.90
28947;DHT22;16052;50.930;5.326;2023-03-23T06:27:48;13.00;99.90
28947;DHT22;16052;50.930;5.326;2023-03-23T06:30:14;13.00;99.90
28947;DHT22;16052;50.930;5.326;2023-03-23T06:32:41;12.90;99.90
28947;DHT22;16052;50.930;5.326;2023-03-23T06:35:08;12.90;99.90
28947;DHT22;16052;50.930;5.326;2023-03-23T06:37:35;12.90;99.90
28947;DHT22;16052;50.930;5.326;2023-03-23T06:40:02;13.00;99.90
28947;DHT22;16052;50.930;5.326;2023-03-23T06:42:30;13.10;99.90
28947;DHT22;16052;50.930;5.326;2023-03-23T06:45:04;12.90;99.90
28947;DHT22;16052;50.930;5.326;2023-03-23T06:47:30;12.90;99.90
28947;DHT22;16052;50.930;5.326;2023-03-23T06:49:56;12.90;99.90
28947;DHT22;16052;50.930;5.326;2023-03-23T06:52:23;12.90;99.90
28947;DHT22;16052;50.930;5.326;2023-03-23T06:54:50;12.90;99.90
28947;DHT22;16052;50.930;5.326;2023-03-23T06:57:17;13.00;99.90
28947;DHT22;16052;50.930;5.326;2023-03-23T06:59:43;13.00;99.90
28947;DHT22;16052;50.930;5.326;2023-03-23T07:02:11;12.90;99.90
28947;DHT22;16052;50.930;5.326;2023-03-23T07:04:38;13.00;99.90
28947;DHT22;16052;50.930;5.326;2023-03-23T07:07:05;13.00;99.90
28947;DHT22;16052;50.930;5.326;2023-03-23T07:09:31;12.90;99.90
28947;DHT22;16052;50.930;5.326;2023-03-23T07:11:57;13.00;99.90
28947;DHT22;16052;50.930;5.326;2023-03-23T07:14:23;13.00;99.90
28947;DHT22;16052;50.930;5.326;2023-03-23T07:16:49;13.10;99.90
28947;DHT22;16052;50.930;5.326;2023-03-23T07:19:15;13.10;99.90
28947;DHT22;16052;50.930;5.326;2023-03-23T07:21:41;13.10;99.90
28947;DHT22;16052;50.930;5.326;2023-03-23T07:24:11;13.10;99.90
28947;DHT22;16052;50.930;5.326;2023-03-23T07:26:40;13.10;99.90
28947;DHT22;16052;50.930;5.326;2023-03-23T07:29:06;13.10;99.90
28947;DHT22;16052;50.930;5.326;2023-03-23T07:31:33;13.20;99.90
28947;DHT22;16052;50.930;5.326;2023-03-23T07:33:58;13.20;99.90
28947;DHT22;16052;50.930;5.326;2023-03-23T07:36:25;13.20;99.90
28947;DHT22;16052;50.930;5.326;2023-03-23T07:38:52;13.20;99.90
28947;DHT22;16052;50.930;5.326;2023-03-23T07:41:18;13.20;99.90
28947;DHT22;16052;50.930;5.326;2023-03-23T07:43:45;13.20;99.90
28947;DHT22;16052;50.930;5.326;2023-03-23T07:46:13;13.20;99.90
28947;DHT22;16052;50.930;5.326;2023-03-23T07:48:39;13.30;99.90
28947;DHT22;16052;50.930;5.326;2023-03-23T07:51:06;13.30;99.90
28947;DHT22;16052;50.930;5.326;2023-03-23T07:53:35;13.20;99.90
28947;DHT22;16052;50.930;5.326;2023-03-23T07:56:01;13.20;99.90
28947;DHT22;16052;50.930;5.326;2023-03-23T07:58:28;13.20;99.90
28947;DHT22;16052;50.930;5.326;2023-03-23T08:00:54;13.20;99.90
28947;DHT22;16052;50.930;5.326;2023-03-23T08:03:24;13.20;99.90
28947;DHT22;16052;50.930;5.326;2023-03-23T08:05:50;13.20;99.90
28947;DHT22;16052;50.930;5.326;2023-03-23T08:08:18;13.20;99.90
28947;DHT22;16052;50.930;5.326;2023-03-23T08:10:44;13.20;99.90
28947;DHT22;16052;50.930;5.326;2023-03-23T08:13:10;13.20;99.90
28947;DHT22;16052;50.930;5.326;2023-03-23T08:15:35;13.20;99.90
28947;DHT22;16052;50.930;5.326;2023-03-23T08:18:03;13.20;99.90
28947;DHT22;16052;50.930;5.326;2023-03-23T08:20:28;13.20;99.90
28947;DHT22;16052;50.930;5.326;2023-03-23T08:22:56;13.20;99.90
28947;DHT22;16052;50.930;5.326;2023-03-23T08:25:23;13.30;99.90
28947;DHT22;16052;50.930;5.326;2023-03-23T08:27:53;13.20;99.90
28947;DHT22;16052;50.930;5.326;2023-03-23T08:30:20;13.10;99.90
28947;DHT22;16052;50.930;5.326;2023-03-23T08:32:49;13.10;99.90
28947;DHT22;16052;50.930;5.326;2023-03-23T08:35:18;13.20;99.90
28947;DHT22;16052;50.930;5.326;2023-03-23T08:37:44;13.20;99.90
28947;DHT22;16052;50.930;5.326;2023-03-23T08:40:12;13.20;99.90
28947;DHT22;16052;50.930;5.326;2023-03-23T08:42:43;13.10;99.90
28947;DHT22;16052;50.930;5.326;2023-03-23T08:45:11;13.10;99.90
28947;DHT22;16052;50.930;5.326;2023-03-23T08:47:38;12.50;99.90
28947;DHT22;16052;50.930;5.326;2023-03-23T08:50:05;12.50;99.90
28947;DHT22;16052;50.930;5.326;2023-03-23T08:52:34;12.50;99.90
28947;DHT22;16052;50.930;5.326;2023-03-23T08:55:00;12.40;99.90
28947;DHT22;16052;50.930;5.326;2023-03-23T08:57:26;12.00;99.90
28947;DHT22;16052;50.930;5.326;2023-03-23T08:59:54;12.10;99.90
28947;DHT22;16052;50.930;5.326;2023-03-23T09:02:26;12.00;99.90
28947;DHT22;16052;50.930;5.326;2023-03-23T09:04:54;12.10;99.90
28947;DHT22;16052;50.930;5.326;2023-03-23T09:07:19;12.00;99.90
28947;DHT22;16052;50.930;5.326;2023-03-23T09:09:45;11.90;99.90
28947;DHT22;16052;50.930;5.326;2023-03-23T09:12:15;12.00;99.90
28947;DHT22;16052;50.930;5.326;2023-03-23T09:14:40;11.90;99.90
28947;DHT22;16052;50.930;5.326;2023-03-23T09:17:06;11.70;99.90
28947;DHT22;16052;50.930;5.326;2023-03-23T09:19:35;11.60;99.90
28947;DHT22;16052;50.930;5.326;2023-03-23T09:22:03;11.50;99.90
28947;DHT22;16052;50.930;5.326;2023-03-23T09:24:30;11.60;99.90
28947;DHT22;16052;50.930;5.326;2023-03-23T09:26:59;11.70;99.90
28947;DHT22;16052;50.930;5.326;2023-03-23T09:29:26;11.80;99.90
28947;DHT22;16052;50.930;5.326;2023-03-23T09:31:55;11.80;99.90
28947;DHT22;16052;50.930;5.326;2023-03-23T09:34:27;11.90;99.90
28947;DHT22;16052;50.930;5.326;2023-03-23T09:37:00;12.10;99.90
28947;DHT22;16052;50.930;5.326;2023-03-23T09:39:30;12.10;99.90
28947;DHT22;16052;50.930;5.326;2023-03-23T09:45:25;12.20;99.90
28947;DHT22;16052;50.930;5.326;2023-03-23T09:54:05;12.20;99.90
28947;DHT22;16052;50.930;5.326;2023-03-23T09:56:37;12.20;99.90
28947;DHT22;16052;50.930;5.326;2023-03-23T09:59:24;12.10;99.90
28947;DHT22;16052;50.930;5.326;2023-03-23T10:04:51;11.80;99.90
28947;DHT22;16052;50.930;5.326;2023-03-23T10:07:26;11.70;99.90
28947;DHT22;16052;50.930;5.326;2023-03-23T10:13:04;11.70;99.90
28947;DHT22;16052;50.930;5.326;2023-03-23T10:15:37;11.80;99.90
28947;DHT22;16052;50.930;5.326;2023-03-23T10:18:37;11.80;99.90
28947;DHT22;16052;50.930;5.326;2023-03-23T10:21:04;11.80;99.90
28947;DHT22;16052;50.930;5.326;2023-03-23T10:23:41;11.80;99.90
28947;DHT22;16052;50.930;5.326;2023-03-23T10:26:18;11.90;99.90
28947;DHT22;16052;50.930;5.326;2023-03-23T10:29:01;11.90;99.90
28947;DHT22;16052;50.930;5.326;2023-03-23T10:31:34;12.10;99.90
28947;DHT22;16052;50.930;5.326;2023-03-23T10:34:47;12.10;99.90
28947;DHT22;16052;50.930;5.326;2023-03-23T10:37:31;12.00;99.90
28947;DHT22;16052;50.930;5.326;2023-03-23T10:40:03;12.00;99.90
28947;DHT22;16052;50.930;5.326;2023-03-23T10:42:39;12.00;99.90
28947;DHT22;16052;50.930;5.326;2023-03-23T10:45:25;12.10;99.90
28947;DHT22;16052;50.930;5.326;2023-03-23T10:50:41;12.10;99.90
28947;DHT22;16052;50.930;5.326;2023-03-23T10:53:32;12.00;99.90
28947;DHT22;16052;50.930;5.326;2023-03-23T10:56:02;11.90;99.90
28947;DHT22;16052;50.930;5.326;2023-03-23T10:58:35;11.80;99.90
28947;DHT22;16052;50.930;5.326;2023-03-23T11:01:04;11.90;99.90
28947;DHT22;16052;50.930;5.326;2023-03-23T11:03:43;11.90;99.90
28947;DHT22;16052;50.930;5.326;2023-03-23T11:06:24;11.90;99.90
28947;DHT22;16052;50.930;5.326;2023-03-23T11:08:58;11.90;99.90
28947;DHT22;16052;50.930;5.326;2023-03-23T11:11:38;11.90;99.90
28947;DHT22;16052;50.930;5.326;2023-03-23T11:14:24;11.90;99.90
28947;DHT22;16052;50.930;5.326;2023-03-23T11:16:54;11.80;99.90
28947;DHT22;16052;50.930;5.326;2023-03-23T11:19:37;11.80;99.90
28947;DHT22;16052;50.930;5.326;2023-03-23T11:22:31;11.90;99.90
28947;DHT22;16052;50.930;5.326;2023-03-23T11:25:13;12.00;99.90
28947;DHT22;16052;50.930;5.326;2023-03-23T11:27:41;12.10;99.90
28947;DHT22;16052;50.930;5.326;2023-03-23T11:30:21;11.90;99.90
28947;DHT22;16052;50.930;5.326;2023-03-23T11:32:51;11.80;99.90
28947;DHT22;16052;50.930;5.326;2023-03-23T11:35:42;11.90;99.90
28947;DHT22;16052;50.930;5.326;2023-03-23T11:38:18;12.10;99.90
28947;DHT22;16052;50.930;5.326;2023-03-23T11:40:51;12.30;99.90
28947;DHT22;16052;50.930;5.326;2023-03-23T11:43:24;12.40;99.90
28947;DHT22;16052;50.930;5.326;2023-03-23T11:49:05;12.60;99.90
28947;DHT22;16052;50.930;5.326;2023-03-23T11:51:45;12.70;99.90
28947;DHT22;16052;50.930;5.326;2023-03-23T11:54:32;12.80;99.90
28947;DHT22;16052;50.930;5.326;2023-03-23T11:56:58;12.80;99.90
28947;DHT22;16052;50.930;5.326;2023-03-23T11:59:33;12.80;99.90
28947;DHT22;16052;50.930;5.326;2023-03-23T12:10:36;13.00;99.90
28947;DHT22;16052;50.930;5.326;2023-03-23T12:13:49;13.00;99.90
28947;DHT22;16052;50.930;5.326;2023-03-23T12:27:53;13.30;99.90
28947;DHT22;16052;50.930;5.326;2023-03-23T12:34:03;13.30;99.90
28947;DHT22;16052;50.930;5.326;2023-03-23T12:39:12;13.40;99.90
28947;DHT22;16052;50.930;5.326;2023-03-23T12:44:20;13.60;99.90
28947;DHT22;16052;50.930;5.326;2023-03-23T12:46:56;13.60;99.90
28947;DHT22;16052;50.930;5.326;2023-03-23T12:52:27;13.50;99.90
28947;DHT22;16052;50.930;5.326;2023-03-23T12:55:03;13.50;99.90
28947;DHT22;16052;50.930;5.326;2023-03-23T12:58:05;13.60;99.90
28947;DHT22;16052;50.930;5.326;2023-03-23T13:01:25;13.70;99.90
28947;DHT22;16052;50.930;5.326;2023-03-23T13:11:37;13.80;99.90
28947;DHT22;16052;50.930;5.326;2023-03-23T13:17:01;13.80;99.90
28947;DHT22;16052;50.930;5.326;2023-03-23T13:26:23;14.10;99.90
28947;DHT22;16052;50.930;5.326;2023-03-23T13:28:27;14.00;99.90
28947;DHT22;16052;50.930;5.326;2023-03-23T13:31:24;14.00;99.90
28947;DHT22;16052;50.930;5.326;2023-03-23T13:34:16;14.00;99.90
28947;DHT22;16052;50.930;5.326;2023-03-23T13:36:52;13.90;99.90
28947;DHT22;16052;50.930;5.326;2023-03-23T13:39:38;13.90;99.90
28947;DHT22;16052;50.930;5.326;2023-03-23T13:47:41;13.40;99.90
28947;DHT22;16052;50.930;5.326;2023-03-23T13:52:53;13.20;99.90
28947;DHT22;16052;50.930;5.326;2023-03-23T13:55:38;13.30;99.90
28947;DHT22;16052;50.930;5.326;2023-03-23T14:05:51;13.80;99.90
28947;DHT22;16052;50.930;5.326;2023-03-23T14:10:59;14.20;99.90
28947;DHT22;16052;50.930;5.326;2023-03-23T14:16:21;14.30;99.90
28947;DHT22;16052;50.930;5.326;2023-03-23T14:18:58;14.30;99.90
28947;DHT22;16052;50.930;5.326;2023-03-23T14:21:37;14.40;99.90
28947;DHT22;16052;50.930;5.326;2023-03-23T14:24:15;14.40;99.90
28947;DHT22;16052;50.930;5.326;2023-03-23T14:26:41;14.40;99.90
28947;DHT22;16052;50.930;5.326;2023-03-23T14:29:11;14.40;99.90
28947;DHT22;16052;50.930;5.326;2023-03-23T14:31:38;14.40;99.90
28947;DHT22;16052;50.930;5.326;2023-03-23T14:34:15;14.50;99.90
28947;DHT22;16052;50.930;5.326;2023-03-23T14:36:43;14.60;99.90
28947;DHT22;16052;50.930;5.326;2023-03-23T14:39:25;14.70;99.90
28947;DHT22;16052;50.930;5.326;2023-03-23T14:42:00;14.70;99.90
28947;DHT22;16052;50.930;5.326;2023-03-23T14:44:31;14.80;99.90
28947;DHT22;16052;50.930;5.326;2023-03-23T14:47:02;14.90;99.90
28947;DHT22;16052;50.930;5.326;2023-03-23T14:49:41;14.80;99.90
28947;DHT22;16052;50.930;5.326;2023-03-23T14:52:12;14.60;99.90
28947;DHT22;16052;50.930;5.326;2023-03-23T14:54:40;14.70;99.90
28947;DHT22;16052;50.930;5.326;2023-03-23T14:57:16;14.60;99.90
28947;DHT22;16052;50.930;5.326;2023-03-23T14:59:46;14.60;99.90
28947;DHT22;16052;50.930;5.326;2023-03-23T15:04:53;14.70;99.90
28947;DHT22;16052;50.930;5.326;2023-03-23T15:07:21;14.80;99.90
28947;DHT22;16052;50.930;5.326;2023-03-23T15:09:50;14.80;99.90
28947;DHT22;16052;50.930;5.326;2023-03-23T15:12:27;14.80;99.90
28947;DHT22;16052;50.930;5.326;2023-03-23T15:14:58;14.80;99.90
28947;DHT22;16052;50.930;5.326;2023-03-23T15:17:30;14.80;99.90
28947;DHT22;16052;50.930;5.326;2023-03-23T15:19:57;14.80;99.90
28947;DHT22;16052;50.930;5.326;2023-03-23T15:22:31;14.80;99.90
28947;DHT22;16052;50.930;5.326;2023-03-23T15:25:23;14.80;99.90
28947;DHT22;16052;50.930;5.326;2023-03-23T15:27:54;14.80;99.90
28947;DHT22;16052;50.930;5.326;2023-03-23T15:33:15;14.90;99.90
28947;DHT22;16052;50.930;5.326;2023-03-23T15:35:50;14.90;99.90
28947;DHT22;16052;50.930;5.326;2023-03-23T15:40:56;14.90;99.90
28947;DHT22;16052;50.930;5.326;2023-03-23T15:43:33;15.00;99.90
28947;DHT22;16052;50.930;5.326;2023-03-23T15:46:19;14.90;99.90
28947;DHT22;16052;50.930;5.326;2023-03-23T15:48:53;14.90;99.90
28947;DHT22;16052;50.930;5.326;2023-03-23T15:51:25;14.90;99.90
28947;DHT22;16052;50.930;5.326;2023-03-23T15:53:56;14.90;99.90
28947;DHT22;16052;50.930;5.326;2023-03-23T15:56:25;14.90;99.90
28947;DHT22;16052;50.930;5.326;2023-03-23T15:58:53;15.00;98.40
28947;DHT22;16052;50.930;5.326;2023-03-23T16:01:24;15.10;97.00
28947;DHT22;16052;50.930;5.326;2023-03-23T16:06:29;15.20;93.60
28947;DHT22;16052;50.930;5.326;2023-03-23T16:08:58;15.20;91.70
28947;DHT22;16052;50.930;5.326;2023-03-23T16:11:26;15.30;91.00
28947;DHT22;16052;50.930;5.326;2023-03-23T16:13:55;15.40;90.50
28947;DHT22;16052;50.930;5.326;2023-03-23T16:16:24;15.40;90.00
28947;DHT22;16052;50.930;5.326;2023-03-23T16:18:52;15.40;90.00
28947;DHT22;16052;50.930;5.326;2023-03-23T16:21:18;15.40;90.50
28947;DHT22;16052;50.930;5.326;2023-03-23T16:23:44;15.40;90.20
28947;DHT22;16052;50.930;5.326;2023-03-23T16:26:11;15.40;89.70
28947;DHT22;16052;50.930;5.326;2023-03-23T16:28:38;15.40;90.50
28947;DHT22;16052;50.930;5.326;2023-03-23T16:31:04;15.30;89.00
28947;DHT22;16052;50.930;5.326;2023-03-23T16:33:30;15.20;88.40
28947;DHT22;16052;50.930;5.326;2023-03-23T16:35:56;15.20;89.40
28947;DHT22;16052;50.930;5.326;2023-03-23T16:38:23;15.30;89.10
28947;DHT22;16052;50.930;5.326;2023-03-23T16:40:49;15.20;88.80
28947;DHT22;16052;50.930;5.326;2023-03-23T16:43:15;15.20;90.20
28947;DHT22;16052;50.930;5.326;2023-03-23T16:45:42;15.20;90.40
28947;DHT22;16052;50.930;5.326;2023-03-23T16:48:08;15.30;90.40
28947;DHT22;16052;50.930;5.326;2023-03-23T16:50:34;15.40;85.30
28947;DHT22;16052;50.930;5.326;2023-03-23T16:53:00;15.40;86.50
28947;DHT22;16052;50.930;5.326;2023-03-23T16:55:27;15.30;85.80
28947;DHT22;16052;50.930;5.326;2023-03-23T16:57:53;15.30;87.00
28947;DHT22;16052;50.930;5.326;2023-03-23T17:00:20;15.30;84.80
28947;DHT22;16052;50.930;5.326;2023-03-23T17:02:49;15.30;83.10
28947;DHT22;16052;50.930;5.326;2023-03-23T17:05:19;15.30;84.80
28947;DHT22;16052;50.930;5.326;2023-03-23T17:07:46;15.30;86.30
28947;DHT22;16052;50.930;5.326;2023-03-23T17:10:12;15.20;85.60
28947;DHT22;16052;50.930;5.326;2023-03-23T17:12:38;15.20;88.20
28947;DHT22;16052;50.930;5.326;2023-03-23T17:15:06;15.20;85.80
28947;DHT22;16052;50.930;5.326;2023-03-23T17:17:33;15.10;88.10
28947;DHT22;16052;50.930;5.326;2023-03-23T17:19:58;15.10;88.40
28947;DHT22;16052;50.930;5.326;2023-03-23T17:22:26;15.10;88.60
28947;DHT22;16052;50.930;5.326;2023-03-23T17:24:52;15.10;90.10
28947;DHT22;16052;50.930;5.326;2023-03-23T17:27:20;15.10;89.90
28947;DHT22;16052;50.930;5.326;2023-03-23T17:29:48;15.10;90.00
28947;DHT22;16052;50.930;5.326;2023-03-23T17:32:14;15.10;90.50
28947;DHT22;16052;50.930;5.326;2023-03-23T17:34:40;15.10;90.00
28947;DHT22;16052;50.930;5.326;2023-03-23T17:37:06;15.20;90.00
28947;DHT22;16052;50.930;5.326;2023-03-23T17:39:32;15.10;88.10
28947;DHT22;16052;50.930;5.326;2023-03-23T17:41:59;15.10;88.60
28947;DHT22;16052;50.930;5.326;2023-03-23T17:44:25;15.10;90.30
28947;DHT22;16052;50.930;5.326;2023-03-23T17:46:51;15.10;90.50
28947;DHT22;16052;50.930;5.326;2023-03-23T17:49:17;15.00;91.50
28947;DHT22;16052;50.930;5.326;2023-03-23T17:51:43;15.00;91.40